Time;durP1;ratioP1;P1;durP2;ratioP2;P2;SDS_P1;SDS_P2;PMS_P1;PMS_P2;Temp;Humidity;BMP_temperature;BMP_pressure;BME280_temperature;BME280_humidity;BME280_pressure;Samples;Min_cycle;Max_cycle;Signal;HPM_P1;HPM_P2
2022/10/09 00:02:22;;;;;;;45.92;20.58;;;;;;;;;;4963715;28;20413;-74
2022/10/09 00:04:48;;;;;;;57.17;21.88;;;;;;;;;;4966833;28;20464;-75
2022/10/09 00:07:14;;;;;;;48.67;19.92;;;;;;;;;;4965808;28;20031;-75
2022/10/09 00:09:40;;;;;;;49.50;21.08;;;;;;;;;;4966560;28;20510;-75
2022/10/09 00:12:06;;;;;;;60.92;23.92;;;;;;;;;;4971980;28;20042;-75
2022/10/09 00:14:32;;;;;;;43.78;18.75;;;;;;;;;;4984763;28;20046;-75
2022/10/09 00:16:58;;;;;;;50.25;18.70;;;;;;;;;;4973410;28;20557;-75
2022/10/09 00:19:24;;;;;;;48.08;19.75;;;;;;;;;;4972834;28;20035;-75
2022/10/09 00:21:50;;;;;;;42.65;18.98;;;;;;;;;;4972848;28;20340;-75
2022/10/09 00:24:16;;;;;;;42.55;19.42;;;;;;;;;;4972397;28;20027;-75
2022/10/09 00:26:42;;;;;;;45.15;19.58;;;;;;;;;;4972424;28;20503;-74
2022/10/09 00:29:08;;;;;;;48.22;20.48;;;;;;;;;;4978776;28;20034;-74
2022/10/09 00:31:34;;;;;;;47.33;20.27;;;;;;;;;;4971532;28;20047;-75
2022/10/09 00:34:00;;;;;;;50.58;21.10;;;;;;;;;;4970548;28;20031;-75
2022/10/09 00:36:26;;;;;;;54.78;22.13;;;;;;;;;;4971111;28;20030;-75
2022/10/09 00:38:53;;;;;;;48.70;21.33;;;;;;;;;;4972769;28;20034;-75
2022/10/09 00:41:21;;;;;;;39.15;19.85;;;;;;;;;;4969389;28;20026;-75
2022/10/09 00:43:49;;;;;;;48.78;19.60;;;;;;;;;;4981811;28;20499;-75
2022/10/09 00:46:36;;;;;;;44.53;18.63;;;;;;;;;;4971069;28;20088;-75
2022/10/09 00:49:02;;;;;;;45.92;18.95;;;;;;;;;;4973949;28;20101;-74
2022/10/09 00:51:29;;;;;;;50.90;19.20;;;;;;;;;;4970562;28;20051;-75
2022/10/09 00:53:55;;;;;;;49.75;19.83;;;;;;;;;;4975810;28;20035;-74
2022/10/09 00:56:21;;;;;;;44.33;17.02;;;;;;;;;;4987388;28;20392;-75
2022/10/09 00:58:51;;;;;;;39.75;17.08;;;;;;;;;;4971309;28;20109;-75
2022/10/09 01:01:18;;;;;;;43.95;17.08;;;;;;;;;;4973003;28;20074;-75
2022/10/09 01:03:44;;;;;;;46.95;18.15;;;;;;;;;;4972029;28;20058;-75
2022/10/09 01:06:15;;;;;;;42.50;18.35;;;;;;;;;;4970347;28;20432;-75
2022/10/09 01:08:49;;;;;;;37.22;18.17;;;;;;;;;;4974681;28;20562;-75
2022/10/09 01:11:36;;;;;;;44.65;17.80;;;;;;;;;;4969014;28;20019;-74
2022/10/09 01:14:06;;;;;;;48.42;17.73;;;;;;;;;;4978596;28;20028;-74
2022/10/09 01:16:52;;;;;;;39.83;17.67;;;;;;;;;;4970712;28;20062;-73
2022/10/09 01:19:20;;;;;;;50.40;18.08;;;;;;;;;;4973982;28;20026;-74
2022/10/09 01:21:54;;;;;;;48.55;18.10;;;;;;;;;;4969319;28;20035;-74
2022/10/09 01:24:37;;;;;;;38.42;18.52;;;;;;;;;;4966079;28;20038;-74
2022/10/09 01:27:06;;;;;;;33.00;17.95;;;;;;;;;;4964353;28;20023;-75
2022/10/09 01:29:37;;;;;;;38.55;17.17;;;;;;;;;;4968602;28;20500;-75
2022/10/09 01:32:05;;;;;;;33.95;16.70;;;;;;;;;;4967798;28;20031;-75
2022/10/09 01:34:31;;;;;;;35.88;15.68;;;;;;;;;;4970904;28;20130;-74
2022/10/09 01:36:58;;;;;;;39.67;18.23;;;;;;;;;;4967587;28;20109;-75
2022/10/09 01:39:24;;;;;;;43.97;18.95;;;;;;;;;;4968116;28;20058;-76
2022/10/09 01:41:51;;;;;;;37.53;17.13;;;;;;;;;;4965070;28;20039;-75
2022/10/09 01:44:19;;;;;;;36.05;18.17;;;;;;;;;;4967332;28;20306;-74
2022/10/09 01:46:45;;;;;;;37.13;18.20;;;;;;;;;;4968111;28;20034;-75
2022/10/09 01:49:11;;;;;;;43.90;17.10;;;;;;;;;;4969171;28;20054;-77
2022/10/09 01:51:45;;;;;;;44.88;18.65;;;;;;;;;;4965458;28;20054;-77
2022/10/09 01:54:12;;;;;;;51.80;19.95;;;;;;;;;;4970747;28;20031;-77
2022/10/09 01:56:38;;;;;;;54.95;22.25;;;;;;;;;;4968384;28;20110;-76
2022/10/09 01:59:08;;;;;;;49.42;21.52;;;;;;;;;;4969734;28;20027;-75
2022/10/09 02:01:35;;;;;;;48.00;21.10;;;;;;;;;;4967924;28;20042;-76
2022/10/09 02:04:04;;;;;;;47.92;21.75;;;;;;;;;;4969360;28;20026;-76
2022/10/09 02:06:30;;;;;;;50.00;22.92;;;;;;;;;;4964403;28;20117;-76
2022/10/09 02:08:57;;;;;;;57.95;23.58;;;;;;;;;;4969411;28;20031;-76
2022/10/09 02:11:25;;;;;;;50.35;23.08;;;;;;;;;;4968952;28;20041;-76
2022/10/09 02:13:52;;;;;;;57.35;24.45;;;;;;;;;;4966185;28;20027;-76
2022/10/09 02:16:27;;;;;;;62.78;25.40;;;;;;;;;;4966351;28;20039;-76
2022/10/09 02:18:57;;;;;;;55.83;25.45;;;;;;;;;;4966499;28;20031;-76
2022/10/09 02:21:26;;;;;;;56.47;25.75;;;;;;;;;;4968161;28;20073;-76
2022/10/09 02:23:54;;;;;;;58.25;28.02;;;;;;;;;;4969093;28;20030;-76
2022/10/09 02:26:20;;;;;;;61.55;27.38;;;;;;;;;;4966924;28;20514;-74
2022/10/09 02:28:46;;;;;;;66.57;28.30;;;;;;;;;;4966532;28;20034;-76
2022/10/09 02:31:29;;;;;;;66.38;30.17;;;;;;;;;;4968162;28;20034;-74
2022/10/09 02:33:58;;;;;;;62.03;30.00;;;;;;;;;;4967999;28;20025;-76
2022/10/09 02:36:25;;;;;;;69.38;31.55;;;;;;;;;;4966052;28;21319;-75
2022/10/09 02:38:51;;;;;;;66.95;31.02;;;;;;;;;;4981573;28;20078;-76
2022/10/09 02:41:17;;;;;;;62.20;30.05;;;;;;;;;;4967879;28;20480;-76
2022/10/09 02:43:43;;;;;;;74.15;32.83;;;;;;;;;;4967430;28;20093;-75
2022/10/09 02:46:09;;;;;;;66.93;32.28;;;;;;;;;;4965356;28;20146;-75
2022/10/09 02:48:35;;;;;;;64.15;32.67;;;;;;;;;;4967130;28;20038;-75
2022/10/09 02:51:01;;;;;;;65.03;31.30;;;;;;;;;;4967816;28;20027;-75
2022/10/09 02:53:27;;;;;;;68.25;32.30;;;;;;;;;;4969014;28;20416;-75
2022/10/09 02:55:53;;;;;;;58.80;31.10;;;;;;;;;;4968776;28;20077;-75
2022/10/09 02:58:19;;;;;;;72.97;34.45;;;;;;;;;;4966111;28;20031;-75
2022/10/09 03:00:49;;;;;;;74.53;33.75;;;;;;;;;;4965647;28;20059;-75
2022/10/09 03:03:15;;;;;;;78.40;34.08;;;;;;;;;;4965250;28;20037;-76
2022/10/09 03:05:41;;;;;;;78.78;34.85;;;;;;;;;;4966309;28;20038;-75
2022/10/09 03:08:07;;;;;;;70.88;34.88;;;;;;;;;;4967147;28;20037;-75
2022/10/09 03:10:33;;;;;;;77.25;34.88;;;;;;;;;;4965930;28;20041;-75
2022/10/09 03:12:59;;;;;;;67.35;34.70;;;;;;;;;;4968350;28;20121;-75
2022/10/09 03:15:25;;;;;;;79.00;36.17;;;;;;;;;;4967624;28;20073;-75
2022/10/09 03:17:51;;;;;;;78.53;34.60;;;;;;;;;;4998854;28;20057;-75
2022/10/09 03:20:17;;;;;;;85.82;37.35;;;;;;;;;;4965001;28;20066;-75
2022/10/09 03:22:43;;;;;;;81.00;37.17;;;;;;;;;;4966059;28;20048;-75
2022/10/09 03:25:09;;;;;;;83.82;40.45;;;;;;;;;;4965193;28;20500;-75
2022/10/09 03:27:35;;;;;;;86.57;39.63;;;;;;;;;;4968633;28;20107;-76
2022/10/09 03:30:01;;;;;;;87.60;40.30;;;;;;;;;;4968576;28;20412;-75
2022/10/09 03:32:28;;;;;;;88.80;41.25;;;;;;;;;;4966311;28;20052;-75
2022/10/09 03:34:54;;;;;;;85.63;39.88;;;;;;;;;;4965851;28;20038;-75
2022/10/09 03:37:20;;;;;;;86.32;40.55;;;;;;;;;;4966311;28;20408;-75
2022/10/09 03:39:46;;;;;;;88.35;41.28;;;;;;;;;;4965664;28;20153;-75
2022/10/09 03:42:12;;;;;;;85.72;40.88;;;;;;;;;;4965981;28;21398;-75
2022/10/09 03:44:38;;;;;;;93.78;41.75;;;;;;;;;;4964737;28;20089;-75
2022/10/09 03:47:04;;;;;;;86.32;42.00;;;;;;;;;;4964542;28;20654;-75
2022/10/09 03:49:30;;;;;;;90.25;43.10;;;;;;;;;;4966256;28;20038;-77
2022/10/09 03:51:56;;;;;;;88.25;41.60;;;;;;;;;;4966164;28;20026;-75
2022/10/09 03:54:22;;;;;;;99.20;42.40;;;;;;;;;;4967389;28;20130;-75
2022/10/09 03:56:48;;;;;;;90.97;43.85;;;;;;;;;;4972104;28;20041;-74
2022/10/09 03:59:14;;;;;;;92.18;42.17;;;;;;;;;;4965746;28;20387;-75
2022/10/09 04:01:40;;;;;;;94.95;44.90;;;;;;;;;;4966114;28;20089;-75
2022/10/09 04:04:06;;;;;;;93.20;44.05;;;;;;;;;;4966914;28;20424;-74
2022/10/09 04:06:32;;;;;;;105.22;42.78;;;;;;;;;;4965443;28;20059;-75
2022/10/09 04:08:58;;;;;;;91.72;43.22;;;;;;;;;;4983409;28;20504;-75
2022/10/09 04:11:24;;;;;;;88.90;42.42;;;;;;;;;;4969247;28;20031;-74
2022/10/09 04:13:50;;;;;;;82.20;41.88;;;;;;;;;;4969201;28;20031;-74
2022/10/09 04:16:16;;;;;;;96.40;44.25;;;;;;;;;;4964385;28;20429;-75
2022/10/09 04:18:42;;;;;;;104.03;44.17;;;;;;;;;;4961353;28;20043;-75
2022/10/09 04:21:08;;;;;;;92.65;43.75;;;;;;;;;;4967068;28;20023;-75
2022/10/09 04:23:34;;;;;;;87.50;42.70;;;;;;;;;;4970297;28;20035;-74
2022/10/09 04:26:01;;;;;;;89.38;41.38;;;;;;;;;;4968952;28;20027;-76
2022/10/09 04:28:27;;;;;;;86.38;42.85;;;;;;;;;;4965205;28;20229;-76
2022/10/09 04:30:53;;;;;;;91.85;41.25;;;;;;;;;;4968305;28;20035;-76
2022/10/09 04:33:20;;;;;;;91.72;41.85;;;;;;;;;;4962384;28;20030;-76
2022/10/09 04:35:49;;;;;;;93.28;42.67;;;;;;;;;;4966539;28;20484;-75
2022/10/09 04:38:15;;;;;;;118.65;45.38;;;;;;;;;;4963912;28;20031;-75
2022/10/09 04:40:41;;;;;;;103.15;44.03;;;;;;;;;;4965173;28;20140;-75
2022/10/09 04:43:07;;;;;;;97.47;43.75;;;;;;;;;;4977418;28;20030;-76
2022/10/09 04:45:33;;;;;;;99.47;43.22;;;;;;;;;;4966859;28;20540;-76
2022/10/09 04:47:59;;;;;;;97.93;44.30;;;;;;;;;;4964028;28;20027;-76
2022/10/09 04:50:25;;;;;;;87.25;43.30;;;;;;;;;;4967802;28;20469;-76
2022/10/09 04:52:51;;;;;;;97.93;44.60;;;;;;;;;;4962367;28;20042;-76
2022/10/09 04:55:17;;;;;;;102.65;45.60;;;;;;;;;;4965822;28;20042;-76
2022/10/09 04:57:43;;;;;;;87.47;42.10;;;;;;;;;;4966476;28;20492;-76
2022/10/09 05:00:09;;;;;;;102.65;44.17;;;;;;;;;;4969481;28;20096;-76
2022/10/09 05:02:35;;;;;;;112.72;44.45;;;;;;;;;;4970760;28;20104;-75
2022/10/09 05:05:01;;;;;;;100.47;43.22;;;;;;;;;;4968975;28;20039;-76
2022/10/09 05:07:27;;;;;;;96.68;41.45;;;;;;;;;;4968589;28;20038;-75
2022/10/09 05:09:54;;;;;;;101.65;43.38;;;;;;;;;;4968048;28;20042;-75
2022/10/09 05:12:20;;;;;;;115.22;43.45;;;;;;;;;;4968669;28;20496;-74
2022/10/09 05:14:46;;;;;;;95.82;42.75;;;;;;;;;;4968450;28;20031;-75
2022/10/09 05:17:12;;;;;;;89.22;41.35;;;;;;;;;;4968579;28;20040;-75
2022/10/09 05:19:38;;;;;;;100.88;42.97;;;;;;;;;;4967469;28;20138;-75
2022/10/09 05:22:04;;;;;;;100.80;43.35;;;;;;;;;;4967287;28;20038;-75
2022/10/09 05:24:30;;;;;;;100.38;43.10;;;;;;;;;;4968544;28;20030;-75
2022/10/09 05:26:56;;;;;;;93.45;44.22;;;;;;;;;;4968024;28;20085;-75
2022/10/09 05:29:22;;;;;;;105.45;42.58;;;;;;;;;;4966130;28;20088;-75
2022/10/09 05:31:48;;;;;;;89.30;42.63;;;;;;;;;;4966054;28;20500;-75
2022/10/09 05:34:14;;;;;;;101.70;42.58;;;;;;;;;;4970973;28;20023;-75
2022/10/09 05:36:40;;;;;;;94.63;41.05;;;;;;;;;;4968125;28;20039;-75
2022/10/09 05:39:06;;;;;;;98.85;43.45;;;;;;;;;;4976697;28;20031;-75
2022/10/09 05:41:32;;;;;;;102.10;43.67;;;;;;;;;;4965088;28;20552;-75
2022/10/09 05:44:02;;;;;;;103.68;42.60;;;;;;;;;;4979011;28;20059;-74
2022/10/09 05:46:29;;;;;;;90.55;41.13;;;;;;;;;;4965968;28;20061;-75
2022/10/09 05:49:05;;;;;;;92.03;42.03;;;;;;;;;;4967742;28;20058;-75
2022/10/09 05:51:32;;;;;;;110.85;43.78;;;;;;;;;;4966410;28;20062;-75
2022/10/09 05:54:00;;;;;;;117.40;45.83;;;;;;;;;;4963590;28;20038;-75
2022/10/09 05:56:26;;;;;;;101.55;43.47;;;;;;;;;;4967983;28;20668;-75
2022/10/09 05:59:02;;;;;;;112.75;45.05;;;;;;;;;;4966847;28;20033;-75
2022/10/09 06:01:30;;;;;;;104.38;45.35;;;;;;;;;;4967805;28;20057;-75
2022/10/09 06:03:57;;;;;;;111.60;43.63;;;;;;;;;;4968411;28;20034;-75
2022/10/09 06:06:25;;;;;;;102.68;43.80;;;;;;;;;;4967564;28;20031;-76
2022/10/09 06:08:51;;;;;;;110.93;47.20;;;;;;;;;;4981182;28;20023;-76
2022/10/09 06:11:18;;;;;;;101.75;46.25;;;;;;;;;;4970614;28;20037;-76
2022/10/09 06:13:45;;;;;;;98.90;44.15;;;;;;;;;;4965268;28;20023;-77
2022/10/09 06:16:12;;;;;;;111.75;46.95;;;;;;;;;;4967242;28;20038;-74
2022/10/09 06:18:39;;;;;;;103.72;47.63;;;;;;;;;;4967804;28;20075;-74
2022/10/09 06:21:05;;;;;;;117.20;47.75;;;;;;;;;;4968035;28;20540;-73
2022/10/09 06:23:32;;;;;;;109.45;47.70;;;;;;;;;;4965405;28;20035;-72
2022/10/09 06:25:59;;;;;;;258.38;151.60;;;;;;;;;;4964509;28;20104;-72
2022/10/09 06:28:27;;;;;;;194.63;104.32;;;;;;;;;;4970662;28;20041;-72
2022/10/09 06:30:53;;;;;;;154.98;68.75;;;;;;;;;;4967297;28;20023;-72
2022/10/09 06:33:19;;;;;;;169.57;64.78;;;;;;;;;;4977001;28;20395;-72
2022/10/09 06:35:45;;;;;;;123.18;65.50;;;;;;;;;;4964298;28;20102;-73
2022/10/09 06:38:11;;;;;;;146.55;65.65;;;;;;;;;;4966034;28;20041;-72
2022/10/09 06:40:38;;;;;;;122.45;57.33;;;;;;;;;;4966322;28;20039;-72
2022/10/09 06:43:04;;;;;;;108.65;54.53;;;;;;;;;;4966479;28;20031;-73
2022/10/09 06:45:31;;;;;;;80.32;43.75;;;;;;;;;;4964754;28;20050;-73
2022/10/09 06:47:57;;;;;;;84.07;42.58;;;;;;;;;;4976586;28;20416;-75
2022/10/09 06:50:23;;;;;;;70.78;39.67;;;;;;;;;;4965772;28;20037;-74
2022/10/09 06:52:49;;;;;;;78.43;39.45;;;;;;;;;;4963318;28;20041;-74
2022/10/09 06:55:15;;;;;;;81.18;39.60;;;;;;;;;;4967501;28;20070;-73
2022/10/09 06:57:41;;;;;;;75.13;43.92;;;;;;;;;;4964783;28;20125;-75
2022/10/09 07:00:07;;;;;;;63.00;35.35;;;;;;;;;;4969194;28;20222;-74
2022/10/09 07:02:33;;;;;;;71.25;40.20;;;;;;;;;;4964390;28;20070;-74
2022/10/09 07:04:59;;;;;;;62.33;37.95;;;;;;;;;;4964448;28;20082;-73
2022/10/09 07:07:25;;;;;;;64.60;34.25;;;;;;;;;;4964374;28;20058;-74
2022/10/09 07:09:52;;;;;;;62.92;35.17;;;;;;;;;;4967218;28;20126;-74
2022/10/09 07:12:18;;;;;;;62.83;33.33;;;;;;;;;;4966066;28;20031;-72
2022/10/09 07:14:44;;;;;;;65.65;33.95;;;;;;;;;;4965542;28;20038;-74
2022/10/09 07:17:10;;;;;;;65.00;35.65;;;;;;;;;;4963660;28;20116;-73
2022/10/09 07:19:36;;;;;;;59.33;35.45;;;;;;;;;;4965381;28;20061;-74
2022/10/09 07:22:02;;;;;;;74.40;41.10;;;;;;;;;;4964844;28;20038;-73
2022/10/09 07:24:28;;;;;;;56.17;36.22;;;;;;;;;;4967801;28;20066;-74
2022/10/09 07:26:56;;;;;;;56.72;35.20;;;;;;;;;;4961586;28;20471;-73
2022/10/09 07:29:22;;;;;;;65.53;34.63;;;;;;;;;;4973221;28;20026;-72
2022/10/09 07:31:48;;;;;;;59.53;35.00;;;;;;;;;;4965235;28;20058;-72
2022/10/09 07:34:15;;;;;;;63.20;37.08;;;;;;;;;;4968663;28;20019;-72
2022/10/09 07:36:41;;;;;;;61.75;40.58;;;;;;;;;;4966116;28;20488;-72
2022/10/09 07:39:07;;;;;;;58.70;37.75;;;;;;;;;;4965255;28;20027;-72
2022/10/09 07:41:34;;;;;;;53.60;32.55;;;;;;;;;;4968018;28;20178;-72
2022/10/09 07:44:00;;;;;;;51.90;32.28;;;;;;;;;;4961748;28;20043;-72
2022/10/09 07:46:27;;;;;;;54.22;33.63;;;;;;;;;;4964432;28;20038;-74
2022/10/09 07:48:53;;;;;;;53.05;31.40;;;;;;;;;;4962155;28;20118;-72
2022/10/09 07:51:20;;;;;;;45.92;28.05;;;;;;;;;;4971836;28;20106;-72
2022/10/09 07:53:46;;;;;;;55.55;26.65;;;;;;;;;;4964997;28;20019;-73
2022/10/09 07:56:15;;;;;;;49.40;26.63;;;;;;;;;;4966141;28;20054;-74
2022/10/09 07:58:42;;;;;;;37.95;25.30;;;;;;;;;;4962764;28;20061;-74
2022/10/09 08:01:08;;;;;;;34.03;22.55;;;;;;;;;;4963338;28;20050;-72
2022/10/09 08:03:35;;;;;;;35.42;20.88;;;;;;;;;;4962305;28;20603;-72
2022/10/09 08:06:01;;;;;;;33.88;17.38;;;;;;;;;;4964786;28;20038;-72
2022/10/09 08:08:27;;;;;;;33.58;17.80;;;;;;;;;;4963276;28;20390;-72
2022/10/09 08:10:53;;;;;;;28.45;16.13;;;;;;;;;;4962962;28;20072;-72
2022/10/09 08:13:19;;;;;;;24.67;14.88;;;;;;;;;;4963207;28;20034;-72
2022/10/09 08:15:45;;;;;;;27.52;15.25;;;;;;;;;;4964347;28;20489;-72
2022/10/09 08:18:12;;;;;;;34.25;14.48;;;;;;;;;;4960151;28;20030;-72
2022/10/09 08:20:38;;;;;;;28.73;12.55;;;;;;;;;;4966036;28;20169;-73
2022/10/09 08:23:04;;;;;;;27.17;11.25;;;;;;;;;;4958540;28;20027;-73
2022/10/09 08:25:34;;;;;;;27.25;10.73;;;;;;;;;;4965255;28;20042;-73
2022/10/09 08:28:00;;;;;;;22.13;10.35;;;;;;;;;;4957193;28;20027;-72
2022/10/09 08:30:26;;;;;;;24.77;9.07;;;;;;;;;;4976978;28;20617;-73
2022/10/09 08:32:52;;;;;;;18.73;8.43;;;;;;;;;;4965779;28;20023;-72
2022/10/09 08:35:18;;;;;;;24.75;8.60;;;;;;;;;;4967482;28;20515;-73
2022/10/09 08:37:44;;;;;;;19.58;7.57;;;;;;;;;;4966865;28;20066;-72
2022/10/09 08:40:15;;;;;;;23.67;7.20;;;;;;;;;;5002011;28;20088;-73
2022/10/09 08:42:49;;;;;;;16.50;6.90;;;;;;;;;;4967653;28;20049;-73
2022/10/09 08:45:16;;;;;;;21.42;8.10;;;;;;;;;;4969117;28;20076;-72
2022/10/09 08:47:45;;;;;;;16.92;6.80;;;;;;;;;;4962208;28;20050;-72
2022/10/09 08:50:15;;;;;;;22.63;6.93;;;;;;;;;;4965467;28;20042;-72
2022/10/09 08:52:41;;;;;;;12.05;5.82;;;;;;;;;;4967596;28;20766;-71
2022/10/09 08:55:18;;;;;;;22.20;6.47;;;;;;;;;;4968429;28;20071;-72
2022/10/09 08:57:45;;;;;;;17.23;6.05;;;;;;;;;;4965417;28;21260;-72
2022/10/09 09:00:18;;;;;;;19.13;6.53;;;;;;;;;;4978089;28;20085;-72
2022/10/09 09:03:13;;;;;;;18.55;6.15;;;;;;;;;;4969221;28;20037;-72
2022/10/09 09:05:43;;;;;;;15.25;6.50;;;;;;;;;;4982886;28;20488;-72
2022/10/09 09:08:09;;;;;;;12.53;5.27;;;;;;;;;;4964138;28;20030;-73
2022/10/09 09:10:54;;;;;;;18.20;5.30;;;;;;;;;;4969197;28;20027;-72
2022/10/09 09:13:37;;;;;;;13.60;4.53;;;;;;;;;;4967940;28;20034;-73
2022/10/09 09:16:15;;;;;;;13.73;4.60;;;;;;;;;;4968429;28;20218;-73
2022/10/09 09:18:52;;;;;;;21.67;5.20;;;;;;;;;;4964183;28;20045;-73
2022/10/09 09:21:18;;;;;;;10.98;4.53;;;;;;;;;;4967753;28;20033;-72
2022/10/09 09:23:47;;;;;;;15.95;4.85;;;;;;;;;;4966828;28;21725;-72
2022/10/09 09:26:16;;;;;;;14.82;5.00;;;;;;;;;;4967082;28;20058;-75
2022/10/09 09:28:43;;;;;;;16.85;4.90;;;;;;;;;;4964961;28;20027;-73
2022/10/09 09:31:21;;;;;;;16.50;5.05;;;;;;;;;;4961269;28;20662;-73
2022/10/09 09:33:48;;;;;;;23.33;5.53;;;;;;;;;;4967507;28;20093;-73
2022/10/09 09:36:21;;;;;;;19.70;5.00;;;;;;;;;;4966245;28;20037;-74
2022/10/09 09:38:48;;;;;;;13.70;5.38;;;;;;;;;;4965241;28;20445;-73
2022/10/09 09:41:14;;;;;;;15.82;5.10;;;;;;;;;;4969573;28;20039;-73
2022/10/09 09:43:41;;;;;;;16.33;5.78;;;;;;;;;;4970176;28;20035;-73
2022/10/09 09:46:12;;;;;;;14.98;5.40;;;;;;;;;;4971396;28;20046;-73
2022/10/09 09:48:41;;;;;;;21.52;5.72;;;;;;;;;;4968789;28;20023;-72
2022/10/09 09:51:14;;;;;;;13.25;4.60;;;;;;;;;;4971863;28;20053;-72
2022/10/09 09:53:41;;;;;;;10.27;4.03;;;;;;;;;;4965098;28;20082;-73
2022/10/09 09:56:08;;;;;;;10.23;4.32;;;;;;;;;;4966474;28;20027;-72
2022/10/09 09:58:45;;;;;;;13.00;4.18;;;;;;;;;;4969104;28;20051;-73
2022/10/09 10:01:19;;;;;;;11.23;3.97;;;;;;;;;;4976421;28;20046;-72
2022/10/09 10:03:48;;;;;;;12.50;4.57;;;;;;;;;;4970188;28;20035;-72
2022/10/09 10:06:21;;;;;;;19.60;4.35;;;;;;;;;;4973418;28;20038;-73
2022/10/09 10:08:57;;;;;;;14.57;4.40;;;;;;;;;;4985569;28;20030;-73
2022/10/09 10:11:23;;;;;;;13.30;4.22;;;;;;;;;;4971556;28;20041;-73
2022/10/09 10:13:49;;;;;;;12.07;4.30;;;;;;;;;;4971084;28;20065;-73
2022/10/09 10:16:39;;;;;;;10.57;3.38;;;;;;;;;;4969130;28;20039;-73
2022/10/09 10:19:05;;;;;;;11.48;3.72;;;;;;;;;;4971832;28;20027;-73
2022/10/09 10:21:46;;;;;;;13.93;3.70;;;;;;;;;;4972442;28;20480;-73
2022/10/09 10:24:14;;;;;;;13.93;3.83;;;;;;;;;;4970204;28;20150;-73
2022/10/09 10:26:50;;;;;;;12.68;4.70;;;;;;;;;;4977587;28;20035;-73
2022/10/09 10:29:16;;;;;;;14.20;4.30;;;;;;;;;;4969352;28;20023;-73
2022/10/09 10:31:48;;;;;;;14.70;5.10;;;;;;;;;;4972437;28;20038;-73
2022/10/09 10:34:20;;;;;;;13.18;5.18;;;;;;;;;;4969138;28;20472;-72
2022/10/09 10:36:47;;;;;;;12.75;4.85;;;;;;;;;;4971137;28;20030;-73
2022/10/09 10:39:43;;;;;;;11.70;5.07;;;;;;;;;;4969792;28;20058;-72
2022/10/09 10:42:14;;;;;;;14.63;5.05;;;;;;;;;;4972418;28;20030;-72
2022/10/09 10:44:40;;;;;;;;;;;;;;;;;;4977840;28;20516;-72
2022/10/09 10:47:10;;;;;;;16.40;5.60;;;;;;;;;;4971503;28;20009;-72
2022/10/09 10:49:36;;;;;;;14.38;5.20;;;;;;;;;;4973490;28;20034;-73
2022/10/09 10:52:19;;;;;;;16.17;4.60;;;;;;;;;;4969444;28;20034;-73
2022/10/09 10:54:54;;;;;;;17.75;5.35;;;;;;;;;;4970324;28;20456;-72
2022/10/09 10:57:26;;;;;;;8.77;4.32;;;;;;;;;;4970603;28;20473;-72
2022/10/09 10:59:55;;;;;;;13.98;4.78;;;;;;;;;;4969288;28;20043;-72
2022/10/09 11:02:40;;;;;;;20.33;4.70;;;;;;;;;;4977881;28;20034;-72
2022/10/09 11:05:13;;;;;;;17.92;4.85;;;;;;;;;;4970980;28;20035;-72
2022/10/09 11:07:39;;;;;;;16.35;5.03;;;;;;;;;;4968308;28;20023;-72
2022/10/09 11:10:23;;;;;;;12.45;4.85;;;;;;;;;;4973936;28;20576;-73
2022/10/09 11:12:57;;;;;;;13.85;4.90;;;;;;;;;;4966930;28;20027;-72
2022/10/09 11:15:36;;;;;;;16.42;4.85;;;;;;;;;;4977653;28;20117;-72
2022/10/09 11:18:11;;;;;;;18.65;5.28;;;;;;;;;;4989374;28;20030;-72
2022/10/09 11:20:51;;;;;;;12.48;4.63;;;;;;;;;;4970492;28;20038;-72
2022/10/09 11:23:37;;;;;;;15.30;5.93;;;;;;;;;;4969837;28;20022;-72
2022/10/09 11:26:06;;;;;;;17.95;5.35;;;;;;;;;;4970066;28;20047;-72
2022/10/09 11:28:44;;;;;;;13.52;4.93;;;;;;;;;;4963199;28;20153;-72
2022/10/09 11:31:16;;;;;;;10.38;4.68;;;;;;;;;;4973046;28;20030;-72
2022/10/09 11:33:45;;;;;;;11.98;4.90;;;;;;;;;;4967777;28;20034;-72
2022/10/09 11:36:16;;;;;;;10.43;5.28;;;;;;;;;;4970903;28;20089;-73
2022/10/09 11:38:44;;;;;;;14.05;4.60;;;;;;;;;;4969745;28;20463;-72
2022/10/09 11:41:11;;;;;;;17.20;5.32;;;;;;;;;;4971472;28;20033;-72
2022/10/09 11:43:40;;;;;;;12.63;5.50;;;;;;;;;;4968901;28;20097;-72
2022/10/09 11:46:20;;;;;;;13.60;5.30;;;;;;;;;;4967654;28;20045;-72
2022/10/09 11:48:46;;;;;;;;;;;;;;;;;;4968004;28;20169;-72
2022/10/09 11:51:22;;;;;;;12.93;4.93;;;;;;;;;;4973294;28;20004;-72
2022/10/09 11:53:50;;;;;;;14.63;6.30;;;;;;;;;;4969134;28;20030;-72
2022/10/09 11:56:20;;;;;;;15.27;5.18;;;;;;;;;;4971670;28;20041;-74
2022/10/09 11:59:03;;;;;;;12.02;5.28;;;;;;;;;;4970289;28;20488;-73
2022/10/09 12:01:39;;;;;;;11.90;4.78;;;;;;;;;;4968413;28;20050;-71
2022/10/09 12:04:28;;;;;;;15.07;4.78;;;;;;;;;;4970155;28;20558;-72
2022/10/09 12:06:59;;;;;;;10.98;4.22;;;;;;;;;;4972909;28;20039;-72
2022/10/09 12:09:34;;;;;;;13.35;3.88;;;;;;;;;;4975965;28;20332;-72
2022/10/09 12:12:06;;;;;;;12.77;4.88;;;;;;;;;;4969204;28;20047;-72
2022/10/09 12:14:32;;;;;;;11.88;4.40;;;;;;;;;;4970028;28;20097;-73
2022/10/09 12:16:59;;;;;;;12.93;4.38;;;;;;;;;;4972978;28;20037;-72
2022/10/09 12:19:27;;;;;;;13.57;4.57;;;;;;;;;;4970435;28;20026;-72
2022/10/09 12:22:14;;;;;;;9.48;4.13;;;;;;;;;;4970950;28;20042;-72
2022/10/09 12:24:42;;;;;;;11.13;4.30;;;;;;;;;;4966815;28;20031;-74
2022/10/09 12:27:08;;;;;;;7.72;2.88;;;;;;;;;;4969385;28;20051;-73
2022/10/09 12:29:44;;;;;;;11.88;2.78;;;;;;;;;;4968139;28;20081;-74
2022/10/09 12:32:14;;;;;;;7.50;2.90;;;;;;;;;;4970472;28;20030;-73
2022/10/09 12:34:47;;;;;;;10.98;4.18;;;;;;;;;;4970479;28;20046;-74
2022/10/09 12:37:18;;;;;;;9.98;2.95;;;;;;;;;;4975697;28;20046;-73
2022/10/09 12:39:45;;;;;;;7.75;3.15;;;;;;;;;;4970070;28;20027;-72
2022/10/09 12:42:21;;;;;;;10.85;3.00;;;;;;;;;;4968477;28;20515;-72
2022/10/09 12:44:48;;;;;;;9.77;3.38;;;;;;;;;;4968611;28;20026;-72
2022/10/09 12:47:28;;;;;;;7.05;2.72;;;;;;;;;;4982278;28;20030;-72
2022/10/09 12:50:03;;;;;;;9.23;2.83;;;;;;;;;;4968556;28;20171;-73
2022/10/09 12:52:30;;;;;;;9.23;2.80;;;;;;;;;;4968099;28;20106;-72
2022/10/09 12:54:56;;;;;;;6.60;2.95;;;;;;;;;;4970291;28;20106;-73
2022/10/09 12:57:22;;;;;;;10.80;2.90;;;;;;;;;;4969108;28;20039;-73
2022/10/09 12:59:49;;;;;;;8.93;2.90;;;;;;;;;;4969559;28;20047;-73
2022/10/09 13:02:16;;;;;;;11.68;3.33;;;;;;;;;;4969692;28;20054;-73
2022/10/09 13:04:42;;;;;;;17.98;8.27;;;;;;;;;;4967525;28;20061;-73
2022/10/09 13:07:21;;;;;;;9.23;3.03;;;;;;;;;;4975413;28;20097;-72
2022/10/09 13:09:48;;;;;;;10.05;2.88;;;;;;;;;;4969559;28;20027;-72
2022/10/09 13:12:20;;;;;;;8.05;3.03;;;;;;;;;;4969286;28;20026;-73
2022/10/09 13:14:56;;;;;;;7.40;3.30;;;;;;;;;;4969639;28;20026;-73
2022/10/09 13:17:23;;;;;;;7.00;3.00;;;;;;;;;;4971109;28;20042;-73
2022/10/09 13:19:50;;;;;;;6.28;2.80;;;;;;;;;;4974865;28;20027;-72
2022/10/09 13:22:19;;;;;;;6.90;2.60;;;;;;;;;;4971088;28;20484;-72
2022/10/09 13:24:46;;;;;;;8.70;3.45;;;;;;;;;;4973413;28;20047;-72
2022/10/09 13:27:18;;;;;;;7.25;3.00;;;;;;;;;;4971186;28;20026;-73
2022/10/09 13:29:44;;;;;;;11.90;2.92;;;;;;;;;;4972405;28;20039;-72
2022/10/09 13:32:17;;;;;;;9.43;2.90;;;;;;;;;;4971727;28;20015;-72
2022/10/09 13:34:43;;;;;;;7.13;3.13;;;;;;;;;;4972697;28;20023;-75
2022/10/09 13:37:12;;;;;;;16.23;3.45;;;;;;;;;;4977236;28;20058;-72
2022/10/09 13:39:38;;;;;;;11.85;3.40;;;;;;;;;;4971623;28;20031;-72
2022/10/09 13:42:04;;;;;;;19.42;4.03;;;;;;;;;;4972560;28;20038;-72
2022/10/09 13:44:31;;;;;;;9.98;2.92;;;;;;;;;;4970196;28;20045;-72
2022/10/09 13:46:57;;;;;;;11.48;3.40;;;;;;;;;;4973460;28;20206;-75
2022/10/09 13:49:23;;;;;;;8.82;3.45;;;;;;;;;;4970205;28;20027;-72
2022/10/09 13:51:49;;;;;;;8.43;2.95;;;;;;;;;;4968928;28;20038;-73
2022/10/09 13:54:15;;;;;;;11.52;3.45;;;;;;;;;;4971669;28;20026;-72
2022/10/09 13:56:41;;;;;;;6.00;3.20;;;;;;;;;;4971750;28;20187;-73
2022/10/09 13:59:07;;;;;;;10.88;3.70;;;;;;;;;;4968452;28;20078;-72
2022/10/09 14:01:33;;;;;;;7.55;3.25;;;;;;;;;;4972765;28;20061;-71
2022/10/09 14:03:59;;;;;;;11.63;3.47;;;;;;;;;;4969451;28;20077;-73
2022/10/09 14:06:25;;;;;;;8.88;3.55;;;;;;;;;;4969570;28;20173;-73
2022/10/09 14:08:52;;;;;;;13.25;3.15;;;;;;;;;;4971836;28;20059;-73
2022/10/09 14:11:18;;;;;;;13.57;4.30;;;;;;;;;;4970335;28;20669;-73
2022/10/09 14:13:44;;;;;;;11.23;3.35;;;;;;;;;;4974100;28;20070;-73
2022/10/09 14:16:10;;;;;;;10.15;3.83;;;;;;;;;;4967353;28;20281;-73
2022/10/09 14:18:36;;;;;;;9.10;3.83;;;;;;;;;;4965814;28;20170;-73
2022/10/09 14:21:12;;;;;;;8.85;3.60;;;;;;;;;;4971037;28;20455;-73
2022/10/09 14:23:38;;;;;;;10.88;3.53;;;;;;;;;;4967807;28;20539;-73
2022/10/09 14:26:04;;;;;;;10.77;3.70;;;;;;;;;;4969909;28;20030;-73
2022/10/09 14:28:31;;;;;;;11.00;3.72;;;;;;;;;;4971011;28;20042;-73
2022/10/09 14:30:57;;;;;;;9.38;3.90;;;;;;;;;;4970444;28;20261;-73
2022/10/09 14:33:23;;;;;;;10.57;3.60;;;;;;;;;;4964136;28;20022;-73